GW4061 Weather Reports


Display with metric or nautical units.
time (UTC)temp
F
wind
direction
speed
MPH
gust
MPH
rain 1hr
in
rain 24hr
in
rain mn
in
humidity
%
barometer
mb
20240521000958 68 233 9.0 25.0 0.00 0.00 0.00 15 1015.1
20240520234959 70 212 11.0 24.0 0.00 0.00 0.00 15 1015.0
20240520234000 69 217 12.0 23.0 0.00 0.00 0.00 14 1014.7
20240520230959 70 216 18.0 27.0 0.00 0.00 0.00 16 1014.9
20240520230001 71 247 16.0 26.0 0.00 0.00 0.00 16 1014.9
20240520224959 71 190 18.0 28.0 0.00 0.00 0.00 17 1014.7
20240520223959 70 201 15.0 24.0 0.00 0.00 0.00 18 1015.0
20240520222959 71 210 20.0 35.0 0.00 0.00 0.00 17 1015.4
20240520221959 71 233 20.0 29.0 0.00 0.00 0.00 17 1015.4
20240520221000 69 256 20.0 34.0 0.00 0.00 0.00 18 1015.6
20240520220001 70 229 21.0 35.0 0.00 0.00 0.00 18 1015.5
20240520214959 71 224 19.0 30.0 0.00 0.00 0.00 20 1015.5
20240520213958 71 230 21.0 31.0 0.00 0.00 0.00 19 1015.7
20240520212959 69 193 19.0 30.0 0.00 0.00 0.00 20 1015.6
20240520211959 70 201 16.0 25.0 0.00 0.00 0.00 19 1015.7
20240520210959 67 231 12.0 23.0 0.00 0.00 0.00 19 1015.9
20240520205958 67 197 14.0 21.0 0.00 0.00 0.00 17 1016.1
20240520204958 66 202 11.0 20.0 0.00 0.00 0.00 17 1015.9
20240520203958 67 178 11.0 18.0 0.00 0.00 0.00 17 1016.1
20240520202957 67 191 11.0 17.0 0.00 0.00 0.00 17 1016.4
20240520201957 67 216 10.0 17.0 0.00 0.00 0.00 17 1016.3
20240520200959 67 231 8.0 19.0 0.00 0.00 0.00 16 1016.2
20240520194959 67 212 11.0 23.0 0.00 0.00 0.00 18 1016.1
20240520193959 67 235 11.0 19.0 0.00 0.00 0.00 17 1016.1
20240520192958 67 183 10.0 15.0 0.00 0.00 0.00 20 1016.1
20240520191958 67 173 10.0 16.0 0.00 0.00 0.00 20 1016.1
20240520190958 67 191 12.0 17.0 0.00 0.00 0.00 20 1016.3
20240520184959 68 183 11.0 17.0 0.00 0.00 0.00 20 1016.1
20240520183959 68 163 10.0 17.0 0.00 0.00 0.00 20 1015.9
20240520182959 68 191 10.0 17.0 0.00 0.00 0.00 22 1016.1
20240520182000 68 147 10.0 16.0 0.00 0.00 0.00 22 1016.2
20240520180959 69 183 10.0 16.0 0.00 0.00 0.00 21 1015.9
20240520180001 69 197 10.0 14.0 0.00 0.00 0.00 22 1016.1
20240520174958 69 147 10.0 18.0 0.00 0.00 0.00 22 1016.0
20240520173959 67 155 12.0 20.0 0.00 0.00 0.00 23 1016.4
20240520171959 68 134 13.0 20.0 0.00 0.00 0.00 22 1016.6
20240520170959 68 149 12.0 23.0 0.00 0.00 0.00 22 1016.6
20240520165958 67 84 11.0 17.0 0.00 0.00 0.00 23 1016.5
20240520162958 65 173 11.0 17.0 0.00 0.00 0.00 23 1016.3
20240520161958 65 173 11.0 19.0 0.00 0.00 0.00 22 1016.4
20240520154959 63 122 10.0 17.0 0.00 0.00 0.00 25 1016.3
20240520153958 62 141 9.0 16.0 0.00 0.00 0.00 24 1016.0
20240520151959 63 154 9.0 16.0 0.00 0.00 0.00 24 1016.1
20240520150958 63 125 9.0 15.0 0.00 0.00 0.00 22 1015.9
20240520145958 63 134 9.0 16.0 0.00 0.00 0.00 21 1015.9
20240520144959 63 160 8.0 16.0 0.00 0.00 0.00 22 1015.6
20240520143958 62 136 9.0 16.0 0.00 0.00 0.00 22 1015.5
20240520142958 62 149 8.0 15.0 0.00 0.00 0.00 24 1015.6
20240520141959 61 145 7.0 12.0 0.00 0.00 0.00 24 1015.5
20240520140958 61 119 7.0 14.0 0.00 0.00 0.00 25 1015.5
20240520135959 60 137 6.0 12.0 0.00 0.00 0.00 24 1015.8
20240520133958 59 157 6.0 12.0 0.00 0.00 0.00 25 1015.6
20240520132958 58 178 6.0 11.0 0.00 0.00 0.00 26 1015.4
20240520132000 58 118 6.0 10.0 0.00 0.00 0.00 25 1015.4
20240520130959 58 116 5.0 9.0 0.00 0.00 0.00 24 1015.5
20240520125958 58 109 6.0 10.0 0.00 0.00 0.00 23 1015.2
20240520124958 58 136 6.0 11.0 0.00 0.00 0.00 23 1015.4
20240520122957 57 130 5.0 11.0 0.00 0.00 0.00 22 1015.3
20240520121957 57 153 5.0 11.0 0.00 0.00 0.00 24 1015.3
20240520120958 57 123 4.0 9.0 0.00 0.00 0.00 25 1015.0
20240520115958 57 139 4.0 6.0 0.00 0.00 0.00 25 1015.3
20240520114958 57 131 3.0 5.0 0.00 0.00 0.00 25 1015.3
20240520113958 57 143 3.0 5.0 0.00 0.00 0.00 25 1015.2
20240520112958 57 145 4.0 8.0 0.00 0.00 0.00 24 1015.3
20240520111959 58 124 4.0 6.0 0.00 0.00 0.00 24 1015.2
20240520110959 57 145 5.0 11.0 0.00 0.00 0.00 24 1015.0
20240520105959 57 154 5.0 9.0 0.00 0.00 0.00 23 1015.2
20240520104957 57 147 5.0 10.0 0.00 0.00 0.00 22 1015.2
20240520102957 56 165 5.0 9.0 0.00 0.00 0.00 21 1015.2
20240520101958 56 143 4.0 9.0 0.00 0.00 0.00 20 1015.0
20240520095958 55 150 4.0 6.0 0.00 0.00 0.00 19 1014.9
20240520094957 54 134 5.0 6.0 0.00 0.00 0.00 19 1015.0
20240520093958 54 127 5.0 9.0 0.00 0.00 0.00 19 1015.2
20240520092957 55 93 5.0 8.0 0.00 0.00 0.00 19 1015.3
20240520090958 56 104 5.0 9.0 0.00 0.00 0.00 18 1015.6
20240520090000 55 131 5.0 9.0 0.00 0.00 0.00 18 1015.7
20240520084957 55 97 5.0 11.0 0.00 0.00 0.00 17 1015.7
20240520083957 55 86 6.0 12.0 0.00 0.00 0.00 17 1015.6
20240520082959 55 112 5.0 9.0 0.00 0.00 0.00 18 1015.7
20240520080958 56 112 4.0 7.0 0.00 0.00 0.00 17 1015.9
20240520080000 56 97 5.0 8.0 0.00 0.00 0.00 17 1016.1
20240520074959 56 103 4.0 7.0 0.00 0.00 0.00 17 1016.1
20240520073958 56 93 6.0 9.0 0.00 0.00 0.00 17 1016.3
20240520072959 57 85 6.0 11.0 0.00 0.00 0.00 17 1016.3
20240520070958 59 85 4.0 7.0 0.00 0.00 0.00 16 1016.6
20240520065959 60 108 4.0 7.0 0.00 0.00 0.00 15 1016.6
20240520065000 62 106 4.0 7.0 0.00 0.00 0.00 14 1016.6
20240520064000 64 101 5.0 8.0 0.00 0.00 0.00 13 1016.6
20240520063001 65 198 5.0 10.0 0.00 0.00 0.00 11 1016.5
20240520061959 63 218 5.0 11.0 0.00 0.00 0.00 12 1016.5
20240520061000 62 217 4.0 9.0 0.00 0.00 0.00 12 1016.6
20240520055959 63 200 5.0 9.0 0.00 0.00 0.00 12 1016.7
20240520055000 63 157 4.0 8.0 0.00 0.00 0.00 12 1016.8
20240520052959 62 178 3.0 4.0 0.00 0.00 0.00 16 1017.1
20240520051959 63 168 4.0 8.0 0.00 0.00 0.00 16 1017.1
20240520050959 63 108 5.0 9.0 0.00 0.00 0.00 17 1017.2
20240520050001 63 108 5.0 12.0 0.00 0.00 0.00 18 1017.3
20240520044959 63 134 5.0 8.0 0.00 0.00 0.00 17 1017.3
20240520044000 63 143 4.0 8.0 0.00 0.00 0.00 18 1017.3
20240520042958 64 134 5.0 9.0 0.00 0.00 0.00 18 1017.3
20240520041959 64 150 4.0 6.0 0.00 0.00 0.00 18 1017.3
20240520041001 64 141 4.0 6.0 0.00 0.00 0.00 18 1017.3
20240520035000 65 128 5.0 9.0 0.00 0.00 0.00 17 1017.0
20240520033959 66 128 5.0 9.0 0.00 0.00 0.00 17 1017.0
20240520032959 67 139 5.0 9.0 0.00 0.00 0.00 17 1017.0
20240520032000 67 165 5.0 9.0 0.00 0.00 0.00 17 1016.9
20240520030000 69 178 5.0 9.0 0.00 0.00 0.00 16 1016.8
20240520023959 70 229 9.0 12.0 0.00 0.00 0.00 15 1016.8
20240520021958 71 212 7.0 11.0 0.00 0.00 0.00 15 1016.6
20240520015957 72 198 7.0 12.0 0.00 0.00 0.00 15 1016.7
20240520014958 73 191 8.0 13.0 0.00 0.00 0.00 15 1016.8
20240520013959 74 203 9.0 14.0 0.00 0.00 0.00 14 1016.7
20240520012958 74 222 10.0 16.0 0.00 0.00 0.00 14 1016.6
20240520011958 75 275 9.0 16.0 0.00 0.00 0.00 14 1016.8
20240520010959 75 211 10.0 17.0 0.00 0.00 0.00 14 1016.6
20240520010003 75 229 11.0 20.0 0.00 0.00 0.00 13 1016.6
20240520005000 76 216 10.0 18.0 0.00 0.00 0.00 13 1016.6
20240520003958 76 268 12.0 21.0 0.00 0.00 0.00 13 1016.6
20240520002959 76 255 11.0 20.0 0.00 0.00 0.00 14 1016.6
20240520002000 76 232 12.0 23.0 0.00 0.00 0.00 14 1016.7